sensor_id;sensor_type;location;lat;lon;timestamp;pressure;altitude;pressure_sealevel;temperature;humidity
20115;BME280;10218;42.874;25.320;2023-02-15T00:02:00;98431.41;;;2.09;100.00
20115;BME280;10218;42.874;25.320;2023-02-15T00:04:28;98433.69;;;2.45;100.00
20115;BME280;10218;42.874;25.320;2023-02-15T00:07:14;98426.62;;;2.59;100.00
20115;BME280;10218;42.874;25.320;2023-02-15T00:09:42;98417.56;;;2.35;100.00
20115;BME280;10218;42.874;25.320;2023-02-15T00:12:10;98428.19;;;2.04;100.00
20115;BME280;10218;42.874;25.320;2023-02-15T00:14:37;98428.38;;;2.01;100.00
20115;BME280;10218;42.874;25.320;2023-02-15T00:17:04;98424.88;;;2.00;100.00
20115;BME280;10218;42.874;25.320;2023-02-15T00:19:31;98414.84;;;1.77;100.00
20115;BME280;10218;42.874;25.320;2023-02-15T00:21:59;98425.72;;;2.17;100.00
20115;BME280;10218;42.874;25.320;2023-02-15T00:24:26;98422.78;;;1.91;100.00
20115;BME280;10218;42.874;25.320;2023-02-15T00:26:53;98427.44;;;2.02;100.00
20115;BME280;10218;42.874;25.320;2023-02-15T00:29:21;98425.78;;;1.85;100.00
20115;BME280;10218;42.874;25.320;2023-02-15T00:31:48;98438.28;;;1.66;100.00
20115;BME280;10218;42.874;25.320;2023-02-15T00:34:21;98424.88;;;1.55;100.00
20115;BME280;10218;42.874;25.320;2023-02-15T00:36:49;98426.56;;;1.71;100.00
20115;BME280;10218;42.874;25.320;2023-02-15T00:39:17;98413.56;;;1.98;100.00
20115;BME280;10218;42.874;25.320;2023-02-15T00:41:46;98408.22;;;2.00;100.00
20115;BME280;10218;42.874;25.320;2023-02-15T00:44:14;98412.84;;;1.96;100.00
20115;BME280;10218;42.874;25.320;2023-02-15T00:46:41;98411.47;;;2.19;100.00
20115;BME280;10218;42.874;25.320;2023-02-15T00:49:09;98418.69;;;2.01;100.00
20115;BME280;10218;42.874;25.320;2023-02-15T00:51:37;98401.28;;;1.83;100.00
20115;BME280;10218;42.874;25.320;2023-02-15T00:54:06;98402.59;;;2.06;100.00
20115;BME280;10218;42.874;25.320;2023-02-15T00:56:33;98409.94;;;2.01;100.00
20115;BME280;10218;42.874;25.320;2023-02-15T00:59:00;98409.06;;;2.00;100.00
20115;BME280;10218;42.874;25.320;2023-02-15T01:01:27;98406.94;;;2.07;100.00
20115;BME280;10218;42.874;25.320;2023-02-15T01:03:55;98405.66;;;1.68;100.00
20115;BME280;10218;42.874;25.320;2023-02-15T01:06:22;98404.06;;;1.96;100.00
20115;BME280;10218;42.874;25.320;2023-02-15T01:08:49;98397.09;;;1.95;100.00
20115;BME280;10218;42.874;25.320;2023-02-15T01:11:19;98405.44;;;2.03;100.00
20115;BME280;10218;42.874;25.320;2023-02-15T01:13:51;98407.28;;;2.01;100.00
20115;BME280;10218;42.874;25.320;2023-02-15T01:16:19;98403.44;;;2.06;100.00
20115;BME280;10218;42.874;25.320;2023-02-15T01:18:47;98410.84;;;2.00;100.00
20115;BME280;10218;42.874;25.320;2023-02-15T01:21:20;98412.06;;;1.94;100.00
20115;BME280;10218;42.874;25.320;2023-02-15T01:23:48;98406.25;;;2.03;100.00
20115;BME280;10218;42.874;25.320;2023-02-15T01:26:16;98408.56;;;1.94;100.00
20115;BME280;10218;42.874;25.320;2023-02-15T01:28:45;98398.00;;;2.09;100.00
20115;BME280;10218;42.874;25.320;2023-02-15T01:31:14;98390.81;;;1.97;100.00
20115;BME280;10218;42.874;25.320;2023-02-15T01:33:44;98401.66;;;2.07;100.00
20115;BME280;10218;42.874;25.320;2023-02-15T01:36:11;98400.28;;;2.15;100.00
20115;BME280;10218;42.874;25.320;2023-02-15T01:38:39;98397.81;;;1.83;100.00
20115;BME280;10218;42.874;25.320;2023-02-15T01:41:09;98388.62;;;1.74;100.00
20115;BME280;10218;42.874;25.320;2023-02-15T01:44:00;98406.53;;;1.99;100.00
20115;BME280;10218;42.874;25.320;2023-02-15T01:46:34;98401.16;;;2.00;100.00
20115;BME280;10218;42.874;25.320;2023-02-15T01:49:15;98380.16;;;1.99;100.00
20115;BME280;10218;42.874;25.320;2023-02-15T01:51:45;98390.81;;;1.97;100.00
20115;BME280;10218;42.874;25.320;2023-02-15T01:54:20;98382.00;;;2.12;100.00
20115;BME280;10218;42.874;25.320;2023-02-15T01:56:48;98376.50;;;2.31;100.00
20115;BME280;10218;42.874;25.320;2023-02-15T01:59:23;98390.28;;;2.06;100.00
20115;BME280;10218;42.874;25.320;2023-02-15T02:01:53;98388.19;;;1.97;100.00
20115;BME280;10218;42.874;25.320;2023-02-15T02:04:35;98388.28;;;1.80;100.00
20115;BME280;10218;42.874;25.320;2023-02-15T02:07:06;98397.12;;;1.79;100.00
20115;BME280;10218;42.874;25.320;2023-02-15T02:09:36;98390.50;;;1.88;100.00
20115;BME280;10218;42.874;25.320;2023-02-15T02:12:04;98403.25;;;1.80;100.00
20115;BME280;10218;42.874;25.320;2023-02-15T02:14:31;98394.75;;;1.75;100.00
20115;BME280;10218;42.874;25.320;2023-02-15T02:17:42;98402.91;;;1.86;100.00
20115;BME280;10218;42.874;25.320;2023-02-15T02:34:09;98406.41;;;1.86;100.00
20115;BME280;10218;42.874;25.320;2023-02-15T02:42:03;98408.37;;;1.67;100.00
20115;BME280;10218;42.874;25.320;2023-02-15T02:44:35;98405.56;;;1.70;100.00
20115;BME280;10218;42.874;25.320;2023-02-15T02:47:16;98415.50;;;1.65;100.00
20115;BME280;10218;42.874;25.320;2023-02-15T02:49:45;98410.44;;;1.62;100.00
20115;BME280;10218;42.874;25.320;2023-02-15T02:58:06;98406.03;;;1.47;100.00
20115;BME280;10218;42.874;25.320;2023-02-15T03:00:57;98402.19;;;1.52;100.00
20115;BME280;10218;42.874;25.320;2023-02-15T03:03:42;98408.87;;;1.58;100.00
20115;BME280;10218;42.874;25.320;2023-02-15T03:06:19;98407.09;;;1.58;100.00
20115;BME280;10218;42.874;25.320;2023-02-15T03:08:50;98402.63;;;1.45;100.00
20115;BME280;10218;42.874;25.320;2023-02-15T03:11:20;98401.75;;;1.60;100.00
20115;BME280;10218;42.874;25.320;2023-02-15T03:13:51;98402.53;;;1.31;100.00
20115;BME280;10218;42.874;25.320;2023-02-15T03:16:19;98401.94;;;1.57;100.00
20115;BME280;10218;42.874;25.320;2023-02-15T03:24:05;98414.06;;;1.44;100.00
20115;BME280;10218;42.874;25.320;2023-02-15T03:26:36;98421.81;;;1.31;100.00
20115;BME280;10218;42.874;25.320;2023-02-15T03:29:07;98420.63;;;1.52;100.00
20115;BME280;10218;42.874;25.320;2023-02-15T03:31:40;98425.47;;;1.60;100.00
20115;BME280;10218;42.874;25.320;2023-02-15T03:34:11;98425.25;;;1.79;100.00
20115;BME280;10218;42.874;25.320;2023-02-15T03:37:00;98432.25;;;1.48;100.00
20115;BME280;10218;42.874;25.320;2023-02-15T03:39:40;98426.38;;;1.43;100.00
20115;BME280;10218;42.874;25.320;2023-02-15T03:42:32;98443.22;;;1.41;100.00
20115;BME280;10218;42.874;25.320;2023-02-15T03:45:09;98423.94;;;1.24;100.00
20115;BME280;10218;42.874;25.320;2023-02-15T03:47:42;98435.06;;;1.29;100.00
20115;BME280;10218;42.874;25.320;2023-02-15T03:50:23;98434.03;;;1.48;100.00
20115;BME280;10218;42.874;25.320;2023-02-15T03:53:14;98441.78;;;1.51;100.00
20115;BME280;10218;42.874;25.320;2023-02-15T03:55:46;98444.75;;;1.45;100.00
20115;BME280;10218;42.874;25.320;2023-02-15T03:58:14;98443.72;;;1.16;100.00
20115;BME280;10218;42.874;25.320;2023-02-15T04:01:15;98443.88;;;1.28;100.00
20115;BME280;10218;42.874;25.320;2023-02-15T04:04:15;98453.56;;;1.44;100.00
20115;BME280;10218;42.874;25.320;2023-02-15T04:06:44;98450.66;;;1.33;100.00
20115;BME280;10218;42.874;25.320;2023-02-15T04:09:14;98452.00;;;1.08;100.00
20115;BME280;10218;42.874;25.320;2023-02-15T04:12:00;98455.78;;;1.36;100.00
20115;BME280;10218;42.874;25.320;2023-02-15T04:14:27;98463.63;;;1.04;100.00
20115;BME280;10218;42.874;25.320;2023-02-15T04:17:13;98465.28;;;1.22;100.00
20115;BME280;10218;42.874;25.320;2023-02-15T04:19:40;98464.66;;;1.17;100.00
20115;BME280;10218;42.874;25.320;2023-02-15T04:22:26;98465.47;;;1.02;100.00
20115;BME280;10218;42.874;25.320;2023-02-15T04:25:12;98468.47;;;0.96;100.00
20115;BME280;10218;42.874;25.320;2023-02-15T04:27:45;98466.78;;;0.78;100.00
20115;BME280;10218;42.874;25.320;2023-02-15T04:30:14;98473.62;;;0.98;100.00
20115;BME280;10218;42.874;25.320;2023-02-15T04:32:42;98460.72;;;0.93;100.00
20115;BME280;10218;42.874;25.320;2023-02-15T04:35:09;98468.81;;;1.06;100.00
20115;BME280;10218;42.874;25.320;2023-02-15T04:37:38;98475.31;;;1.16;100.00
20115;BME280;10218;42.874;25.320;2023-02-15T04:40:08;98455.34;;;0.79;100.00
20115;BME280;10218;42.874;25.320;2023-02-15T04:42:36;98478.00;;;1.14;100.00
20115;BME280;10218;42.874;25.320;2023-02-15T04:45:03;98478.97;;;1.92;100.00
20115;BME280;10218;42.874;25.320;2023-02-15T04:47:31;98477.19;;;1.92;100.00
20115;BME280;10218;42.874;25.320;2023-02-15T04:49:58;98475.75;;;2.02;100.00
20115;BME280;10218;42.874;25.320;2023-02-15T04:52:25;98472.25;;;2.02;100.00
20115;BME280;10218;42.874;25.320;2023-02-15T04:54:52;98477.34;;;1.58;100.00
20115;BME280;10218;42.874;25.320;2023-02-15T04:57:19;98478.88;;;1.93;100.00
20115;BME280;10218;42.874;25.320;2023-02-15T04:59:46;98475.03;;;2.44;100.00
20115;BME280;10218;42.874;25.320;2023-02-15T05:02:15;98459.22;;;1.99;100.00
20115;BME280;10218;42.874;25.320;2023-02-15T05:04:42;98485.91;;;2.08;100.00
20115;BME280;10218;42.874;25.320;2023-02-15T05:07:09;98449.66;;;1.82;100.00
20115;BME280;10218;42.874;25.320;2023-02-15T05:09:36;98493.69;;;1.80;100.00
20115;BME280;10218;42.874;25.320;2023-02-15T05:12:06;98494.03;;;1.74;100.00
20115;BME280;10218;42.874;25.320;2023-02-15T05:14:33;98495.38;;;2.12;100.00
20115;BME280;10218;42.874;25.320;2023-02-15T05:17:01;98489.25;;;2.42;100.00
20115;BME280;10218;42.874;25.320;2023-02-15T05:19:28;98493.72;;;2.55;100.00
20115;BME280;10218;42.874;25.320;2023-02-15T05:21:56;98502.25;;;2.45;100.00
20115;BME280;10218;42.874;25.320;2023-02-15T05:24:23;98499.13;;;2.68;100.00
20115;BME280;10218;42.874;25.320;2023-02-15T05:27:12;98513.94;;;2.41;100.00
20115;BME280;10218;42.874;25.320;2023-02-15T05:29:58;98513.44;;;2.34;100.00
20115;BME280;10218;42.874;25.320;2023-02-15T05:32:25;98516.16;;;2.48;100.00
20115;BME280;10218;42.874;25.320;2023-02-15T05:34:53;98524.09;;;2.33;100.00
20115;BME280;10218;42.874;25.320;2023-02-15T05:37:20;98521.03;;;2.09;100.00
20115;BME280;10218;42.874;25.320;2023-02-15T05:39:47;98527.47;;;2.35;100.00
20115;BME280;10218;42.874;25.320;2023-02-15T05:42:14;98534.25;;;2.39;100.00
20115;BME280;10218;42.874;25.320;2023-02-15T05:44:41;98540.88;;;2.46;100.00
20115;BME280;10218;42.874;25.320;2023-02-15T05:47:08;98534.81;;;2.59;100.00
20115;BME280;10218;42.874;25.320;2023-02-15T05:49:35;98539.66;;;2.67;100.00
20115;BME280;10218;42.874;25.320;2023-02-15T05:52:03;98541.75;;;2.46;100.00
20115;BME280;10218;42.874;25.320;2023-02-15T05:54:33;98539.47;;;2.70;100.00
20115;BME280;10218;42.874;25.320;2023-02-15T05:57:00;98545.13;;;2.64;100.00
20115;BME280;10218;42.874;25.320;2023-02-15T05:59:27;98555.72;;;2.78;100.00
20115;BME280;10218;42.874;25.320;2023-02-15T06:01:54;98555.28;;;2.70;100.00
20115;BME280;10218;42.874;25.320;2023-02-15T06:04:22;98554.03;;;2.91;100.00
20115;BME280;10218;42.874;25.320;2023-02-15T06:06:49;98563.13;;;2.72;100.00
20115;BME280;10218;42.874;25.320;2023-02-15T06:09:16;98562.94;;;2.45;100.00
20115;BME280;10218;42.874;25.320;2023-02-15T06:11:45;98564.09;;;2.85;100.00
20115;BME280;10218;42.874;25.320;2023-02-15T06:14:12;98565.03;;;3.28;100.00
20115;BME280;10218;42.874;25.320;2023-02-15T06:16:39;98568.34;;;3.31;100.00
20115;BME280;10218;42.874;25.320;2023-02-15T06:19:06;98569.59;;;2.96;100.00
20115;BME280;10218;42.874;25.320;2023-02-15T06:21:34;98574.84;;;2.82;100.00
20115;BME280;10218;42.874;25.320;2023-02-15T06:24:01;98578.06;;;2.87;100.00
20115;BME280;10218;42.874;25.320;2023-02-15T06:26:28;98585.72;;;3.50;100.00
20115;BME280;10218;42.874;25.320;2023-02-15T06:28:55;98582.31;;;3.48;100.00
20115;BME280;10218;42.874;25.320;2023-02-15T06:31:22;98573.72;;;3.72;100.00
20115;BME280;10218;42.874;25.320;2023-02-15T06:33:49;98582.13;;;3.79;100.00
20115;BME280;10218;42.874;25.320;2023-02-15T06:36:17;98586.28;;;3.69;100.00
20115;BME280;10218;42.874;25.320;2023-02-15T06:38:44;98572.59;;;3.76;100.00
20115;BME280;10218;42.874;25.320;2023-02-15T06:41:11;98587.09;;;4.12;100.00
20115;BME280;10218;42.874;25.320;2023-02-15T06:43:38;98592.13;;;4.43;100.00
20115;BME280;10218;42.874;25.320;2023-02-15T06:46:06;98584.88;;;4.59;100.00
20115;BME280;10218;42.874;25.320;2023-02-15T06:48:34;98582.38;;;4.03;100.00
20115;BME280;10218;42.874;25.320;2023-02-15T06:51:01;98589.16;;;4.21;100.00
20115;BME280;10218;42.874;25.320;2023-02-15T06:53:28;98587.12;;;3.98;100.00
20115;BME280;10218;42.874;25.320;2023-02-15T06:56:03;98584.72;;;4.75;100.00
20115;BME280;10218;42.874;25.320;2023-02-15T06:58:33;98585.59;;;4.08;100.00
20115;BME280;10218;42.874;25.320;2023-02-15T07:01:02;98562.03;;;4.32;100.00
20115;BME280;10218;42.874;25.320;2023-02-15T07:03:30;98574.59;;;4.55;100.00
20115;BME280;10218;42.874;25.320;2023-02-15T07:05:59;98577.38;;;4.39;100.00
20115;BME280;10218;42.874;25.320;2023-02-15T07:08:27;98575.34;;;4.30;100.00
20115;BME280;10218;42.874;25.320;2023-02-15T07:10:55;98557.28;;;3.81;100.00
20115;BME280;10218;42.874;25.320;2023-02-15T07:13:47;98580.59;;;4.44;100.00
20115;BME280;10218;42.874;25.320;2023-02-15T07:16:14;98571.34;;;4.64;100.00
20115;BME280;10218;42.874;25.320;2023-02-15T07:18:41;98568.72;;;5.41;100.00
20115;BME280;10218;42.874;25.320;2023-02-15T07:21:08;98572.69;;;6.47;100.00
20115;BME280;10218;42.874;25.320;2023-02-15T07:23:36;98568.37;;;7.61;100.00
20115;BME280;10218;42.874;25.320;2023-02-15T07:26:05;98559.34;;;6.83;100.00
20115;BME280;10218;42.874;25.320;2023-02-15T07:28:34;98557.59;;;6.71;100.00
20115;BME280;10218;42.874;25.320;2023-02-15T07:31:04;98548.41;;;6.64;100.00
20115;BME280;10218;42.874;25.320;2023-02-15T07:33:32;98539.50;;;7.00;100.00
20115;BME280;10218;42.874;25.320;2023-02-15T07:36:02;98552.41;;;7.72;89.49
20115;BME280;10218;42.874;25.320;2023-02-15T07:38:35;98547.28;;;7.25;99.79
20115;BME280;10218;42.874;25.320;2023-02-15T07:41:08;98550.19;;;6.87;100.00
20115;BME280;10218;42.874;25.320;2023-02-15T07:43:39;98549.88;;;7.03;100.00
20115;BME280;10218;42.874;25.320;2023-02-15T07:46:11;98552.06;;;7.09;100.00
20115;BME280;10218;42.874;25.320;2023-02-15T07:48:40;98549.72;;;6.93;99.50
20115;BME280;10218;42.874;25.320;2023-02-15T07:51:09;98546.00;;;6.96;100.00
20115;BME280;10218;42.874;25.320;2023-02-15T07:53:37;98538.72;;;7.32;96.09
20115;BME280;10218;42.874;25.320;2023-02-15T07:56:08;98553.22;;;5.98;100.00
20115;BME280;10218;42.874;25.320;2023-02-15T07:58:37;98556.09;;;7.14;100.00
20115;BME280;10218;42.874;25.320;2023-02-15T08:01:22;98555.03;;;5.98;100.00
20115;BME280;10218;42.874;25.320;2023-02-15T08:03:50;98554.00;;;6.72;100.00
20115;BME280;10218;42.874;25.320;2023-02-15T08:06:21;98554.13;;;7.16;100.00
20115;BME280;10218;42.874;25.320;2023-02-15T08:08:50;98558.75;;;7.14;100.00
20115;BME280;10218;42.874;25.320;2023-02-15T08:11:22;98558.19;;;6.63;100.00
20115;BME280;10218;42.874;25.320;2023-02-15T08:16:29;98555.44;;;7.68;97.45
20115;BME280;10218;42.874;25.320;2023-02-15T08:18:58;98563.38;;;8.46;83.55
20115;BME280;10218;42.874;25.320;2023-02-15T08:21:28;98551.56;;;8.71;80.59
20115;BME280;10218;42.874;25.320;2023-02-15T08:23:56;98556.16;;;8.69;79.14
20115;BME280;10218;42.874;25.320;2023-02-15T08:26:25;98557.94;;;8.79;80.56
20115;BME280;10218;42.874;25.320;2023-02-15T08:28:52;98559.78;;;8.13;89.26
20115;BME280;10218;42.874;25.320;2023-02-15T08:31:20;98558.50;;;9.15;78.96
20115;BME280;10218;42.874;25.320;2023-02-15T08:33:49;98555.91;;;10.06;68.07
20115;BME280;10218;42.874;25.320;2023-02-15T08:36:22;98549.56;;;11.72;58.27
20115;BME280;10218;42.874;25.320;2023-02-15T08:38:50;98551.53;;;12.43;53.42
20115;BME280;10218;42.874;25.320;2023-02-15T08:41:24;98548.09;;;11.31;57.56
20115;BME280;10218;42.874;25.320;2023-02-15T08:43:54;98548.53;;;10.88;57.27
20115;BME280;10218;42.874;25.320;2023-02-15T08:46:24;98549.38;;;10.79;60.87
20115;BME280;10218;42.874;25.320;2023-02-15T08:48:52;98537.47;;;11.68;53.87
20115;BME280;10218;42.874;25.320;2023-02-15T08:51:21;98547.03;;;12.62;50.83
20115;BME280;10218;42.874;25.320;2023-02-15T08:53:52;98552.37;;;12.89;49.24
20115;BME280;10218;42.874;25.320;2023-02-15T08:56:24;98547.38;;;11.29;52.32
20115;BME280;10218;42.874;25.320;2023-02-15T08:58:53;98555.31;;;12.68;51.30
20115;BME280;10218;42.874;25.320;2023-02-15T09:01:26;98543.22;;;12.10;51.36
20115;BME280;10218;42.874;25.320;2023-02-15T09:04:03;98535.81;;;11.47;52.94
20115;BME280;10218;42.874;25.320;2023-02-15T09:06:37;98555.59;;;12.48;48.96
20115;BME280;10218;42.874;25.320;2023-02-15T09:09:05;98549.50;;;14.29;45.86
20115;BME280;10218;42.874;25.320;2023-02-15T09:11:38;98548.94;;;13.58;46.32
20115;BME280;10218;42.874;25.320;2023-02-15T09:14:11;98552.00;;;13.19;46.92
20115;BME280;10218;42.874;25.320;2023-02-15T09:16:43;98550.75;;;14.09;45.61
20115;BME280;10218;42.874;25.320;2023-02-15T09:19:17;98534.25;;;15.45;42.69
20115;BME280;10218;42.874;25.320;2023-02-15T09:21:45;98547.28;;;14.17;43.70
20115;BME280;10218;42.874;25.320;2023-02-15T09:24:15;98544.69;;;14.91;43.56
20115;BME280;10218;42.874;25.320;2023-02-15T09:26:45;98536.16;;;14.11;45.01
20115;BME280;10218;42.874;25.320;2023-02-15T09:29:14;98533.75;;;15.49;42.68
20115;BME280;10218;42.874;25.320;2023-02-15T09:31:43;98536.81;;;14.13;42.99
20115;BME280;10218;42.874;25.320;2023-02-15T09:34:14;98546.22;;;13.32;44.90
20115;BME280;10218;42.874;25.320;2023-02-15T09:36:42;98542.88;;;11.39;48.22
20115;BME280;10218;42.874;25.320;2023-02-15T09:39:25;98530.69;;;12.37;47.70
20115;BME280;10218;42.874;25.320;2023-02-15T09:47:59;98526.62;;;14.25;43.85
20115;BME280;10218;42.874;25.320;2023-02-15T09:50:52;98527.81;;;13.63;44.47
20115;BME280;10218;42.874;25.320;2023-02-15T09:53:46;98519.72;;;14.14;43.95
20115;BME280;10218;42.874;25.320;2023-02-15T09:56:32;98528.38;;;14.00;43.06
20115;BME280;10218;42.874;25.320;2023-02-15T09:59:10;98521.59;;;13.88;43.51
20115;BME280;10218;42.874;25.320;2023-02-15T10:04:54;98516.03;;;12.77;45.30
20115;BME280;10218;42.874;25.320;2023-02-15T10:10:54;98506.47;;;15.76;40.69
20115;BME280;10218;42.874;25.320;2023-02-15T10:13:39;98499.09;;;15.06;41.20
20115;BME280;10218;42.874;25.320;2023-02-15T10:16:13;98510.38;;;14.35;41.75
20115;BME280;10218;42.874;25.320;2023-02-15T10:19:02;98500.09;;;13.88;42.65
20115;BME280;10218;42.874;25.320;2023-02-15T10:26:50;98495.66;;;14.55;42.95
20115;BME280;10218;42.874;25.320;2023-02-15T10:29:37;98495.06;;;15.18;40.91
20115;BME280;10218;42.874;25.320;2023-02-15T10:32:32;98498.13;;;13.39;42.13
20115;BME280;10218;42.874;25.320;2023-02-15T10:38:11;98482.28;;;15.28;42.42
20115;BME280;10218;42.874;25.320;2023-02-15T11:00:54;98460.03;;;15.34;41.33
20115;BME280;10218;42.874;25.320;2023-02-15T11:06:27;98470.97;;;15.57;40.17
20115;BME280;10218;42.874;25.320;2023-02-15T11:08:59;98467.75;;;16.47;39.41
20115;BME280;10218;42.874;25.320;2023-02-15T11:11:32;98476.78;;;13.63;41.50
20115;BME280;10218;42.874;25.320;2023-02-15T11:14:44;98480.84;;;14.43;40.74
20115;BME280;10218;42.874;25.320;2023-02-15T11:17:15;98482.66;;;16.35;37.76
20115;BME280;10218;42.874;25.320;2023-02-15T11:22:28;98476.53;;;15.63;39.21
20115;BME280;10218;42.874;25.320;2023-02-15T11:24:58;98474.19;;;14.95;40.05
20115;BME280;10218;42.874;25.320;2023-02-15T11:27:33;98477.56;;;14.15;40.80
20115;BME280;10218;42.874;25.320;2023-02-15T11:30:14;98467.31;;;16.05;38.99
20115;BME280;10218;42.874;25.320;2023-02-15T11:32:47;98466.88;;;13.89;40.42
20115;BME280;10218;42.874;25.320;2023-02-15T11:35:29;98465.09;;;15.53;39.24
20115;BME280;10218;42.874;25.320;2023-02-15T11:38:19;98466.12;;;15.12;40.57
20115;BME280;10218;42.874;25.320;2023-02-15T11:40:50;98453.13;;;15.64;39.92
20115;BME280;10218;42.874;25.320;2023-02-15T11:43:42;98461.22;;;15.64;40.45
20115;BME280;10218;42.874;25.320;2023-02-15T11:46:12;98452.28;;;17.32;37.57
20115;BME280;10218;42.874;25.320;2023-02-15T11:48:40;98447.78;;;16.87;37.69
20115;BME280;10218;42.874;25.320;2023-02-15T11:51:13;98442.16;;;18.94;34.35
20115;BME280;10218;42.874;25.320;2023-02-15T11:53:44;98451.22;;;16.50;37.65
20115;BME280;10218;42.874;25.320;2023-02-15T11:56:17;98444.59;;;14.79;39.43
20115;BME280;10218;42.874;25.320;2023-02-15T11:58:50;98438.13;;;15.45;38.81
20115;BME280;10218;42.874;25.320;2023-02-15T12:01:48;98436.19;;;15.86;38.99
20115;BME280;10218;42.874;25.320;2023-02-15T12:04:25;98437.81;;;17.10;37.45
20115;BME280;10218;42.874;25.320;2023-02-15T12:07:34;98424.03;;;18.37;34.17
20115;BME280;10218;42.874;25.320;2023-02-15T12:12:46;98434.50;;;15.22;38.49
20115;BME280;10218;42.874;25.320;2023-02-15T12:15:14;98436.06;;;15.79;38.91
20115;BME280;10218;42.874;25.320;2023-02-15T12:22:53;98421.13;;;15.45;39.57
20115;BME280;10218;42.874;25.320;2023-02-15T12:25:27;98410.66;;;16.89;38.13
20115;BME280;10218;42.874;25.320;2023-02-15T12:27:56;98414.56;;;16.64;35.91
20115;BME280;10218;42.874;25.320;2023-02-15T12:30:35;98413.97;;;17.66;35.75
20115;BME280;10218;42.874;25.320;2023-02-15T12:33:27;98411.75;;;17.32;35.99
20115;BME280;10218;42.874;25.320;2023-02-15T12:36:03;98408.03;;;17.48;35.17
20115;BME280;10218;42.874;25.320;2023-02-15T12:38:34;98419.34;;;15.05;38.83
20115;BME280;10218;42.874;25.320;2023-02-15T12:41:04;98415.00;;;14.87;39.42
20115;BME280;10218;42.874;25.320;2023-02-15T12:43:34;98415.47;;;15.95;36.96
20115;BME280;10218;42.874;25.320;2023-02-15T12:46:21;98405.66;;;13.33;42.94
20115;BME280;10218;42.874;25.320;2023-02-15T12:49:25;98399.16;;;16.19;38.98
20115;BME280;10218;42.874;25.320;2023-02-15T12:52:00;98408.09;;;15.80;38.29
20115;BME280;10218;42.874;25.320;2023-02-15T12:54:42;98405.16;;;18.44;35.55
20115;BME280;10218;42.874;25.320;2023-02-15T12:57:25;98405.66;;;13.67;39.83
20115;BME280;10218;42.874;25.320;2023-02-15T13:00:01;98396.50;;;14.84;39.83
20115;BME280;10218;42.874;25.320;2023-02-15T13:05:04;98395.06;;;15.92;37.61
20115;BME280;10218;42.874;25.320;2023-02-15T13:07:34;98389.50;;;17.16;36.33
20115;BME280;10218;42.874;25.320;2023-02-15T13:10:01;98383.22;;;18.39;34.57
20115;BME280;10218;42.874;25.320;2023-02-15T13:12:30;98381.16;;;17.02;36.49
20115;BME280;10218;42.874;25.320;2023-02-15T13:14:59;98386.78;;;16.78;36.01
20115;BME280;10218;42.874;25.320;2023-02-15T13:17:33;98393.37;;;16.30;36.33
20115;BME280;10218;42.874;25.320;2023-02-15T13:20:09;98394.50;;;15.74;36.51
20115;BME280;10218;42.874;25.320;2023-02-15T13:22:45;98368.94;;;13.76;39.45
20115;BME280;10218;42.874;25.320;2023-02-15T13:25:22;98393.28;;;15.85;36.38
20115;BME280;10218;42.874;25.320;2023-02-15T13:27:56;98381.84;;;16.36;36.33
20115;BME280;10218;42.874;25.320;2023-02-15T13:32:59;98382.94;;;18.49;32.82
20115;BME280;10218;42.874;25.320;2023-02-15T13:41:31;98383.84;;;17.84;33.14
20115;BME280;10218;42.874;25.320;2023-02-15T13:44:21;98377.53;;;16.73;35.40
20115;BME280;10218;42.874;25.320;2023-02-15T13:52:25;98380.59;;;17.74;34.10
20115;BME280;10218;42.874;25.320;2023-02-15T13:55:20;98384.94;;;16.79;34.22
20115;BME280;10218;42.874;25.320;2023-02-15T14:15:06;98370.75;;;14.90;37.31
20115;BME280;10218;42.874;25.320;2023-02-15T14:20:24;98381.59;;;15.45;36.05
20115;BME280;10218;42.874;25.320;2023-02-15T14:25:52;98368.81;;;18.96;32.40
20115;BME280;10218;42.874;25.320;2023-02-15T14:31:05;98381.22;;;14.93;37.77
20115;BME280;10218;42.874;25.320;2023-02-15T14:33:40;98380.69;;;14.41;38.66
20115;BME280;10218;42.874;25.320;2023-02-15T14:36:15;98376.97;;;15.07;38.63
20115;BME280;10218;42.874;25.320;2023-02-15T14:42:01;98378.75;;;17.22;33.98
20115;BME280;10218;42.874;25.320;2023-02-15T14:44:42;98375.72;;;17.54;33.59
20115;BME280;10218;42.874;25.320;2023-02-15T14:49:41;98386.84;;;14.33;37.83
20115;BME280;10218;42.874;25.320;2023-02-15T14:52:11;98382.97;;;14.20;38.67
20115;BME280;10218;42.874;25.320;2023-02-15T14:59:55;98396.72;;;11.92;42.37
20115;BME280;10218;42.874;25.320;2023-02-15T15:02:50;98389.31;;;10.56;45.58
20115;BME280;10218;42.874;25.320;2023-02-15T15:07:58;98390.00;;;10.39;46.74
20115;BME280;10218;42.874;25.320;2023-02-15T15:10:40;98388.97;;;9.92;47.18
20115;BME280;10218;42.874;25.320;2023-02-15T15:13:37;98381.34;;;9.78;46.55
20115;BME280;10218;42.874;25.320;2023-02-15T15:18:57;98382.34;;;9.96;47.44
20115;BME280;10218;42.874;25.320;2023-02-15T15:49:32;98385.97;;;8.96;64.68
20115;BME280;10218;42.874;25.320;2023-02-15T15:52:09;98402.41;;;8.59;73.35
20115;BME280;10218;42.874;25.320;2023-02-15T15:54:42;98405.47;;;8.76;71.36
20115;BME280;10218;42.874;25.320;2023-02-15T15:57:27;98404.44;;;8.67;76.77
20115;BME280;10218;42.874;25.320;2023-02-15T15:59:56;98413.28;;;7.61;89.05
20115;BME280;10218;42.874;25.320;2023-02-15T16:02:27;98414.56;;;7.78;87.80
20115;BME280;10218;42.874;25.320;2023-02-15T16:05:08;98406.25;;;7.60;80.21
20115;BME280;10218;42.874;25.320;2023-02-15T16:07:36;98405.31;;;7.05;86.26
20115;BME280;10218;42.874;25.320;2023-02-15T16:10:06;98420.63;;;7.02;90.40
20115;BME280;10218;42.874;25.320;2023-02-15T16:12:35;98412.88;;;6.76;91.59
20115;BME280;10218;42.874;25.320;2023-02-15T16:15:16;98418.06;;;6.78;96.13